createdAt,value
2022-10-05T00:22:30.898Z,6.30
2022-10-05T00:27:25.263Z,6.10
2022-10-05T00:29:52.906Z,6.00
2022-10-05T00:39:41.464Z,5.80
2022-10-05T00:42:18.037Z,5.60
2022-10-05T00:44:50.533Z,5.80
2022-10-05T00:47:29.300Z,7.80
2022-10-05T00:50:06.200Z,6.20
2022-10-05T00:52:51.571Z,6.00
2022-10-05T00:55:23.237Z,5.20
2022-10-05T00:57:52.753Z,5.60
2022-10-05T01:00:23.406Z,5.70
2022-10-05T01:02:49.979Z,5.80
2022-10-05T01:05:16.511Z,5.90
2022-10-05T01:07:52.399Z,5.90
2022-10-05T01:10:23.972Z,6.10
2022-10-05T01:12:58.240Z,5.70
2022-10-05T01:15:31.342Z,6.00
2022-10-05T01:18:06.711Z,5.80
2022-10-05T01:20:39.573Z,5.80
2022-10-05T01:23:32.560Z,5.50
2022-10-05T01:26:02.189Z,5.50
2022-10-05T01:28:32.154Z,5.40
2022-10-05T01:31:14.038Z,5.30
2022-10-05T01:33:46.423Z,5.60
2022-10-05T01:36:17.187Z,5.50
2022-10-05T01:38:43.759Z,5.70
2022-10-05T01:41:16.566Z,5.70
2022-10-05T01:43:43.184Z,5.70
2022-10-05T01:46:19.776Z,5.30
2022-10-05T01:48:58.662Z,5.60
2022-10-05T01:51:48.089Z,5.70
2022-10-05T01:54:17.701Z,5.70
2022-10-05T01:56:44.485Z,5.40
2022-10-05T01:59:30.083Z,5.20
2022-10-05T02:02:08.010Z,5.40
2022-10-05T02:05:01.406Z,5.30
2022-10-05T02:07:39.862Z,5.40
2022-10-05T02:10:20.228Z,5.30
2022-10-05T02:12:47.714Z,5.40
2022-10-05T02:15:16.018Z,5.40
2022-10-05T02:17:48.414Z,5.30
2022-10-05T02:20:18.283Z,5.50
2022-10-05T02:22:49.779Z,5.80
2022-10-05T02:25:17.767Z,5.40
2022-10-05T02:27:47.569Z,5.40
2022-10-05T02:30:16.761Z,5.00
2022-10-05T02:33:04.363Z,5.60
2022-10-05T02:35:31.021Z,5.30
2022-10-05T02:40:30.966Z,5.00
2022-10-05T02:42:57.554Z,4.90
2022-10-05T02:45:48.994Z,4.80
2022-10-05T02:48:28.751Z,4.90
2022-10-05T02:51:38.201Z,4.80
2022-10-05T02:54:14.384Z,4.80
2022-10-05T02:56:44.317Z,4.90
2022-10-05T02:59:14.817Z,4.90
2022-10-05T03:01:47.797Z,4.80
2022-10-05T03:04:39.396Z,4.80
2022-10-05T03:07:15.957Z,4.80
2022-10-05T03:09:47.840Z,4.80
2022-10-05T03:12:14.484Z,4.10
2022-10-05T03:14:44.099Z,4.30
2022-10-05T03:17:17.093Z,4.70
2022-10-05T03:19:49.888Z,4.70
2022-10-05T03:22:22.583Z,4.70
2022-10-05T03:24:49.499Z,5.00
2022-10-05T03:27:25.469Z,4.60
2022-10-05T03:30:04.286Z,4.90
2022-10-05T03:32:49.184Z,4.60
2022-10-05T03:35:21.301Z,4.90
2022-10-05T03:38:11.332Z,4.20
2022-10-05T03:40:43.211Z,5.00
2022-10-05T03:43:25.272Z,4.10
2022-10-05T03:46:00.785Z,4.80
2022-10-05T03:48:30.451Z,4.70
2022-10-05T03:51:06.392Z,4.90
2022-10-05T03:53:46.581Z,4.90
2022-10-05T03:56:24.015Z,4.70
2022-10-05T03:58:57.493Z,4.90
2022-10-05T04:01:28.861Z,4.70
2022-10-05T04:03:59.484Z,4.50
2022-10-05T04:06:33.194Z,6.40
2022-10-05T04:09:07.224Z,4.70
2022-10-05T04:11:36.886Z,4.70
2022-10-05T04:14:21.942Z,4.30
2022-10-05T04:16:54.395Z,4.60
2022-10-05T04:19:20.945Z,4.60
2022-10-05T04:21:51.029Z,4.30
2022-10-05T04:24:19.061Z,4.10
2022-10-05T04:26:45.909Z,4.30
2022-10-05T04:29:15.740Z,4.10
2022-10-05T04:32:01.217Z,4.50
2022-10-05T04:34:53.138Z,4.50
2022-10-05T04:37:23.687Z,4.40
2022-10-05T04:39:56.625Z,4.20
2022-10-05T04:42:26.228Z,4.20
2022-10-05T04:45:13.170Z,4.10
2022-10-05T04:47:39.799Z,4.10
2022-10-05T04:50:17.107Z,4.00
2022-10-05T04:52:52.839Z,4.00
2022-10-05T04:55:29.219Z,4.10
2022-10-05T04:58:07.520Z,4.20
2022-10-05T05:00:52.978Z,4.20
2022-10-05T05:03:31.282Z,4.20
2022-10-05T05:06:16.833Z,4.20
2022-10-05T05:09:03.061Z,4.10
2022-10-05T05:11:32.762Z,4.10
2022-10-05T05:14:18.264Z,4.10
2022-10-05T05:16:47.688Z,4.10
2022-10-05T05:19:26.701Z,4.10
2022-10-05T05:21:57.500Z,4.00
2022-10-05T05:24:27.136Z,4.00
2022-10-05T05:26:59.827Z,4.00
2022-10-05T05:29:45.226Z,4.00
2022-10-05T05:32:26.708Z,3.80
2022-10-05T05:35:12.298Z,3.80
2022-10-05T05:37:43.905Z,3.80
2022-10-05T05:40:22.904Z,3.80
2022-10-05T05:43:15.849Z,4.00
2022-10-05T05:45:57.058Z,4.10
2022-10-05T05:48:38.301Z,4.20
2022-10-05T05:54:44.495Z,4.20
2022-10-05T05:57:16.682Z,4.10
2022-10-05T06:03:51.560Z,4.00
2022-10-05T06:06:33.039Z,4.00
2022-10-05T06:09:43.399Z,4.00
2022-10-05T06:12:38.665Z,4.10
2022-10-05T06:22:19.840Z,4.70
2022-10-05T06:25:13.546Z,4.60
2022-10-05T06:27:58.971Z,4.60
2022-10-05T06:30:27.640Z,4.70
2022-10-05T06:33:12.703Z,4.40
2022-10-05T06:35:54.549Z,4.80
2022-10-05T06:38:21.182Z,4.70
2022-10-05T06:41:23.423Z,4.40
2022-10-05T06:43:57.218Z,4.80
2022-10-05T06:46:29.133Z,5.00
2022-10-05T06:48:58.763Z,5.00
2022-10-05T06:53:57.702Z,5.30
2022-10-05T06:56:29.670Z,5.60
2022-10-05T06:59:00.529Z,5.80
2022-10-05T07:01:27.232Z,6.10
2022-10-05T07:04:14.177Z,6.80
2022-10-05T07:06:48.651Z,6.50
2022-10-05T07:14:21.547Z,6.80
2022-10-05T07:17:00.381Z,6.90
2022-10-05T07:19:45.770Z,6.90
2022-10-05T07:24:42.577Z,7.20
2022-10-05T07:27:18.367Z,7.20
2022-10-05T07:29:44.936Z,7.30
2022-10-05T07:32:22.380Z,7.60
2022-10-05T07:35:07.724Z,7.70
2022-10-05T07:37:57.799Z,7.90
2022-10-05T07:40:30.167Z,8.00
2022-10-05T07:43:03.933Z,8.10
2022-10-05T07:45:33.593Z,8.40
2022-10-05T07:48:13.756Z,8.50
2022-10-05T07:50:44.631Z,8.70
2022-10-05T07:53:16.730Z,8.90
2022-10-05T07:55:47.086Z,9.10
2022-10-05T07:58:40.480Z,9.40
2022-10-05T08:01:27.688Z,9.70
2022-10-05T08:03:56.855Z,9.80
2022-10-05T08:06:27.055Z,10.00
2022-10-05T08:09:16.944Z,10.20
2022-10-05T08:11:53.341Z,10.40
2022-10-05T08:14:25.486Z,10.60
2022-10-05T08:16:54.049Z,10.90
2022-10-05T08:19:29.576Z,11.90
2022-10-05T08:22:00.355Z,11.40
2022-10-05T08:24:45.768Z,12.10
2022-10-05T08:27:30.832Z,11.80
2022-10-05T08:30:05.327Z,12.00
2022-10-05T08:32:37.898Z,12.20
2022-10-05T08:35:16.459Z,12.50
2022-10-05T08:37:44.147Z,12.30
2022-10-05T08:40:16.881Z,12.90
2022-10-05T08:42:58.805Z,12.30
2022-10-05T08:48:01.625Z,12.60
2022-10-05T08:50:34.421Z,12.50
2022-10-05T08:53:04.169Z,12.60
2022-10-05T08:55:33.829Z,12.70
2022-10-05T08:58:10.065Z,12.70
2022-10-05T09:00:48.028Z,13.10
2022-10-05T09:03:14.670Z,12.90
2022-10-05T09:06:00.045Z,13.60
2022-10-05T09:08:32.761Z,13.20
2022-10-05T09:11:17.799Z,13.50
2022-10-05T09:13:52.421Z,13.80
2022-10-05T09:16:25.183Z,14.80
2022-10-05T09:18:55.057Z,14.40
2022-10-05T09:21:34.999Z,14.40
2022-10-05T09:24:01.582Z,14.50
2022-10-05T09:26:40.388Z,14.70
2022-10-05T09:29:19.342Z,14.70
2022-10-05T09:32:05.355Z,14.90
2022-10-05T09:34:50.755Z,15.90
2022-10-05T09:37:36.252Z,15.20
2022-10-05T09:40:17.007Z,15.20
2022-10-05T09:42:58.569Z,15.20
2022-10-05T09:45:45.502Z,15.50
2022-10-05T09:48:30.957Z,15.80
2022-10-05T09:51:23.274Z,16.00
2022-10-05T09:53:53.045Z,16.00
2022-10-05T09:56:25.171Z,16.10
2022-10-05T09:59:09.016Z,16.50
2022-10-05T10:01:35.683Z,16.20
2022-10-05T10:04:02.392Z,16.40
2022-10-05T10:06:35.155Z,16.50
2022-10-05T10:09:20.271Z,16.70
2022-10-05T10:12:05.176Z,16.70
2022-10-05T10:15:10.515Z,16.70
2022-10-05T10:17:55.791Z,16.80
2022-10-05T10:20:40.998Z,16.80
2022-10-05T10:23:14.545Z,17.00
2022-10-05T10:25:41.186Z,17.50
2022-10-05T10:28:17.859Z,17.60
2022-10-05T10:31:03.171Z,17.20
2022-10-05T10:33:39.150Z,17.10
2022-10-05T10:36:13.813Z,17.20
2022-10-05T10:39:02.177Z,17.50
2022-10-05T10:41:28.855Z,17.30
2022-10-05T10:43:55.391Z,18.40
2022-10-05T10:46:28.194Z,18.40
2022-10-05T10:48:57.892Z,18.10
2022-10-05T10:51:35.080Z,18.10
2022-10-05T10:54:16.893Z,18.40
2022-10-05T10:56:43.535Z,18.30
2022-10-05T10:59:10.106Z,18.50
2022-10-05T11:01:40.753Z,18.60
2022-10-05T11:04:17.107Z,18.50
2022-10-05T11:06:49.730Z,18.90
2022-10-05T11:09:19.516Z,18.80
2022-10-05T11:14:28.916Z,18.90
2022-10-05T11:17:10.909Z,19.20
2022-10-05T11:22:13.068Z,19.20
2022-10-05T11:32:21.380Z,20.00
2022-10-05T11:34:51.078Z,20.00
2022-10-05T11:37:23.940Z,19.90
2022-10-05T11:39:53.790Z,19.70
2022-10-05T11:42:36.326Z,19.80
2022-10-05T11:45:21.848Z,19.90
2022-10-05T11:48:00.701Z,19.70
2022-10-05T11:50:50.175Z,19.80
2022-10-05T12:05:35.996Z,20.50
2022-10-05T13:06:55.381Z,24.10
2022-10-05T13:09:42.240Z,24.40
2022-10-05T13:14:51.153Z,23.90
2022-10-05T13:39:45.889Z,22.90
2022-10-05T13:49:53.732Z,23.10
2022-10-05T13:52:39.288Z,23.70
2022-10-05T13:57:32.912Z,23.10
2022-10-05T14:00:06.063Z,23.30
2022-10-05T14:02:38.321Z,23.60
2022-10-05T14:05:34.304Z,23.50
2022-10-05T14:08:04.174Z,23.60
2022-10-05T14:10:34.017Z,23.80
2022-10-05T14:13:01.765Z,24.90
2022-10-05T14:17:58.143Z,23.10
2022-10-05T14:20:26.864Z,22.80
2022-10-05T14:37:48.174Z,22.00
2022-10-05T14:40:23.090Z,22.00
2022-10-05T14:45:21.312Z,21.40
2022-10-05T14:47:49.856Z,21.60
2022-10-05T14:50:21.631Z,22.10
2022-10-05T14:53:03.634Z,21.80
2022-10-05T14:55:35.915Z,22.00
2022-10-05T16:39:22.864Z,18.20
2022-10-05T16:41:55.003Z,18.40
2022-10-05T16:44:21.565Z,19.50
2022-10-05T16:46:57.803Z,19.40
2022-10-05T16:49:27.387Z,17.90
2022-10-05T16:51:59.048Z,17.70
2022-10-05T16:54:42.227Z,17.60
2022-10-05T16:57:17.577Z,17.50
2022-10-05T17:00:10.849Z,18.90
2022-10-05T17:02:53.081Z,17.60
2022-10-05T17:05:34.786Z,17.50
2022-10-05T17:10:41.136Z,17.00
2022-10-05T17:13:07.686Z,17.20
2022-10-05T17:15:34.331Z,16.70
2022-10-05T17:20:40.229Z,16.80
2022-10-05T17:23:11.960Z,16.70
2022-10-05T17:25:44.668Z,16.70
2022-10-05T17:28:23.904Z,17.00
2022-10-05T17:30:58.668Z,16.60
2022-10-05T17:33:26.384Z,16.60
2022-10-05T17:41:15.084Z,16.50
2022-10-05T17:46:09.540Z,16.30
2022-10-05T17:51:26.144Z,16.00
2022-10-05T17:54:11.477Z,15.50
2022-10-05T17:56:47.560Z,15.30
2022-10-05T18:04:11.459Z,15.40
2022-10-05T18:09:16.904Z,15.30
2022-10-05T18:14:23.134Z,15.10
2022-10-05T18:16:56.798Z,15.10
2022-10-05T18:19:23.558Z,15.00
2022-10-05T18:24:29.737Z,14.80
2022-10-05T18:26:59.587Z,14.70
2022-10-05T18:29:56.026Z,14.70
2022-10-05T18:32:31.991Z,14.60
2022-10-05T18:35:04.040Z,14.70
2022-10-05T18:37:49.409Z,14.40
2022-10-05T18:40:40.177Z,14.30
2022-10-05T18:43:09.818Z,14.30
2022-10-05T18:45:36.527Z,14.30
2022-10-05T18:48:14.164Z,15.60
2022-10-05T18:51:00.721Z,15.40
2022-10-05T18:53:37.578Z,14.40
2022-10-05T18:56:23.232Z,14.30
2022-10-05T18:59:08.510Z,14.30
2022-10-05T19:01:53.530Z,14.40
2022-10-05T19:04:30.191Z,14.30
2022-10-05T19:07:15.691Z,14.30
2022-10-05T19:09:53.793Z,14.40
2022-10-05T19:12:27.518Z,14.20
2022-10-05T19:17:25.786Z,13.70
2022-10-05T19:27:19.572Z,13.30
2022-10-05T19:30:03.450Z,13.40
2022-10-05T19:32:33.093Z,13.40
2022-10-05T19:35:12.175Z,13.30
2022-10-05T19:37:48.396Z,13.30
2022-10-05T19:42:49.266Z,13.30
2022-10-05T19:45:29.367Z,14.60
2022-10-05T19:52:52.081Z,12.90
2022-10-05T19:55:22.391Z,13.20
2022-10-05T19:57:53.179Z,12.90
2022-10-05T20:00:24.249Z,14.30
2022-10-05T20:02:52.003Z,14.50
2022-10-05T20:07:45.816Z,12.60
2022-10-05T20:10:22.494Z,13.20
2022-10-05T20:15:39.399Z,12.50
2022-10-05T20:18:43.551Z,12.90
2022-10-05T20:21:30.078Z,12.40
2022-10-05T20:24:13.712Z,13.50
2022-10-05T20:27:02.312Z,12.00
2022-10-05T20:29:29.626Z,12.10
2022-10-05T20:31:56.252Z,11.50
2022-10-05T20:34:23.035Z,12.00
2022-10-05T20:36:50.570Z,12.20
2022-10-05T20:39:18.316Z,12.40
2022-10-05T20:41:45.301Z,13.20
2022-10-05T20:44:12.518Z,13.20
2022-10-05T20:46:41.705Z,11.30
2022-10-05T20:49:12.556Z,12.50
2022-10-05T20:51:40.125Z,11.60
2022-10-05T20:54:07.464Z,11.00
2022-10-05T20:56:34.400Z,11.30
2022-10-05T20:59:01.025Z,10.60
2022-10-05T21:01:28.940Z,11.30
2022-10-05T21:03:55.995Z,11.20
2022-10-05T21:06:22.849Z,11.40
2022-10-05T21:08:51.315Z,11.10
2022-10-05T21:11:17.927Z,11.00
2022-10-05T21:13:45.272Z,11.00
2022-10-05T21:16:13.405Z,10.60
2022-10-05T21:18:40.069Z,10.90
2022-10-05T21:21:06.727Z,11.10
2022-10-05T21:23:33.401Z,11.20
2022-10-05T21:26:00.486Z,11.20
2022-10-05T21:28:28.439Z,11.20
2022-10-05T21:30:55.605Z,11.10
2022-10-05T21:35:49.167Z,10.90
2022-10-05T21:38:15.740Z,10.40
2022-10-05T21:40:44.022Z,10.40
2022-10-05T21:43:10.875Z,9.90
2022-10-05T21:45:37.500Z,10.50
2022-10-05T21:48:04.680Z,10.00
2022-10-05T21:50:31.975Z,10.60
2022-10-05T21:53:00.046Z,10.60
2022-10-05T21:55:26.659Z,10.70
2022-10-05T21:57:54.811Z,10.70
2022-10-05T22:00:21.394Z,10.70
2022-10-05T22:02:48.385Z,10.60
2022-10-05T22:05:15.059Z,10.60
2022-10-05T22:07:41.647Z,11.00
2022-10-05T22:10:09.329Z,9.80
2022-10-05T22:12:35.907Z,10.10
2022-10-05T22:15:03.024Z,9.90
2022-10-05T22:17:31.232Z,9.90
2022-10-05T22:19:58.848Z,10.10
2022-10-05T22:22:26.070Z,10.00
2022-10-05T22:24:53.053Z,10.00
2022-10-05T22:27:21.104Z,9.80
2022-10-05T22:29:47.756Z,10.00
2022-10-05T22:32:14.343Z,9.90
2022-10-05T22:34:40.883Z,9.90
2022-10-05T22:37:09.914Z,9.80
2022-10-05T22:39:36.743Z,9.90
2022-10-05T22:42:03.980Z,9.90
2022-10-05T22:44:30.535Z,10.00
2022-10-05T22:46:57.104Z,9.70
2022-10-05T22:49:24.152Z,10.00
2022-10-05T22:51:51.080Z,10.40
2022-10-05T22:54:17.744Z,10.10
2022-10-05T22:56:44.438Z,10.40
2022-10-05T22:59:10.970Z,10.20
2022-10-05T23:01:37.571Z,10.10
2022-10-05T23:04:04.515Z,9.90
2022-10-05T23:06:31.104Z,9.80
2022-10-05T23:08:57.658Z,10.10
2022-10-05T23:11:25.932Z,10.00
2022-10-05T23:13:53.488Z,10.10
2022-10-05T23:16:21.562Z,9.80
2022-10-05T23:18:49.166Z,10.00
2022-10-05T23:21:16.265Z,10.20
2022-10-05T23:23:47.165Z,10.10
2022-10-05T23:26:13.745Z,10.00
2022-10-05T23:28:42.918Z,9.90
2022-10-05T23:31:09.579Z,9.70
2022-10-05T23:33:36.195Z,10.00
2022-10-05T23:36:06.037Z,9.70
2022-10-05T23:38:32.769Z,10.00
2022-10-05T23:40:59.797Z,9.80
2022-10-05T23:43:26.820Z,9.90
2022-10-05T23:45:54.251Z,9.90
2022-10-05T23:48:21.364Z,9.80
2022-10-05T23:50:48.895Z,9.70
2022-10-05T23:53:16.507Z,9.70
2022-10-05T23:58:10.533Z,9.60
